Time;durP1;ratioP1;P1;durP2;ratioP2;P2;SDS_P1;SDS_P2;PMS_P1;PMS_P2;Temp;Humidity;BMP_temperature;BMP_pressure;BME280_temperature;BME280_humidity;BME280_pressure;Samples;Min_cycle;Max_cycle;Signal;HPM_P1;HPM_P2
2022/05/22 00:01:55;;;;;;;6.00;4.90;;;19.30;92.30;;;;;;4986621;28;21435;-68
2022/05/22 00:04:22;;;;;;;5.53;4.70;;;19.30;92.30;;;;;;4986289;28;20926;-68
2022/05/22 00:06:48;;;;;;;6.90;5.03;;;19.30;92.60;;;;;;4987352;28;20935;-67
2022/05/22 00:09:13;;;;;;;7.67;5.10;;;19.20;92.90;;;;;;4988164;28;20460;-67
2022/05/22 00:11:39;;;;;;;6.73;4.47;;;19.10;93.40;;;;;;4990113;28;20475;-68
2022/05/22 00:14:05;;;;;;;8.00;4.93;;;19.10;93.60;;;;;;4986594;28;20808;-67
2022/05/22 00:16:36;;;;;;;5.70;4.60;;;19.20;93.60;;;;;;4986153;28;20210;-68
2022/05/22 00:19:10;;;;;;;5.93;4.30;;;19.20;93.40;;;;;;4969334;28;20725;-68
2022/05/22 00:21:38;;;;;;;6.13;4.40;;;19.20;93.50;;;;;;4988200;28;20535;-68
2022/05/22 00:24:04;;;;;;;5.37;4.30;;;19.20;93.60;;;;;;4984902;28;20907;-67
2022/05/22 00:26:30;;;;;;;7.50;4.63;;;19.30;93.70;;;;;;4986648;28;20413;-68
2022/05/22 00:28:56;;;;;;;8.83;5.63;;;19.20;94.00;;;;;;4986373;28;20502;-68
2022/05/22 00:31:21;;;;;;;5.70;4.63;;;19.30;94.30;;;;;;4986448;28;20201;-68
2022/05/22 00:33:47;;;;;;;6.23;4.73;;;19.20;94.50;;;;;;4987361;28;20614;-68
2022/05/22 00:36:13;;;;;;;5.10;4.43;;;19.20;94.50;;;;;;4986735;28;20236;-68
2022/05/22 00:38:39;;;;;;;8.80;5.17;;;19.10;94.70;;;;;;4987322;28;20209;-67
2022/05/22 00:41:06;;;;;;;10.37;5.07;;;19.10;94.90;;;;;;4985675;28;20861;-68
2022/05/22 00:43:42;;;;;;;7.00;5.10;;;18.90;95.30;;;;;;4985547;28;22256;-68
2022/05/22 00:46:11;;;;;;;5.20;4.60;;;18.90;95.80;;;;;;4985779;28;20428;-68
2022/05/22 00:48:43;;;;;;;5.23;4.27;;;18.80;96.10;;;;;;4984491;28;20891;-68
2022/05/22 00:51:23;;;;;;;5.90;4.33;;;18.70;95.80;;;;;;4986286;28;20522;-67
2022/05/22 00:53:58;;;;;;;4.57;3.77;;;18.50;95.80;;;;;;4986228;28;20779;-67
2022/05/22 00:56:33;;;;;;;4.33;3.70;;;18.50;96.10;;;;;;4985450;28;20452;-69
2022/05/22 00:58:59;;;;;;;4.47;4.03;;;18.60;96.00;;;;;;4985417;28;20480;-67
2022/05/22 01:01:25;;;;;;;5.10;4.07;;;18.50;96.40;;;;;;4986783;28;20434;-67
2022/05/22 01:03:50;;;;;;;4.87;3.67;;;18.20;96.90;;;;;;4986759;28;20429;-67
2022/05/22 01:06:22;;;;;;;4.30;3.67;;;18.20;97.40;;;;;;4988050;28;20258;-67
2022/05/22 01:08:48;;;;;;;4.90;3.70;;;18.10;97.50;;;;;;4987084;28;20216;-68
2022/05/22 01:11:18;;;;;;;6.93;3.03;;;18.10;97.80;;;;;;4987480;28;20895;-68
2022/05/22 01:13:49;;;;;;;5.77;3.40;;;18.00;97.70;;;;;;4985378;28;20198;-68
2022/05/22 01:16:16;;;;;;;3.90;3.30;;;18.00;97.90;;;;;;4985210;28;20950;-68
2022/05/22 01:18:54;;;;;;;4.10;3.23;;;18.20;97.80;;;;;;4986256;28;21105;-68
2022/05/22 01:21:27;;;;;;;3.93;3.50;;;18.20;97.70;;;;;;4986222;28;20429;-68
2022/05/22 01:23:53;;;;;;;6.30;3.40;;;18.20;97.80;;;;;;4985439;28;20926;-68
2022/05/22 01:26:19;;;;;;;5.07;3.40;;;18.20;98.00;;;;;;4986896;28;20460;-68
2022/05/22 01:28:45;;;;;;;5.60;3.20;;;18.10;98.40;;;;;;4985572;28;20452;-68
2022/05/22 01:31:20;;;;;;;4.10;3.70;;;18.20;98.30;;;;;;4985854;28;20853;-68
2022/05/22 01:33:45;;;;;;;4.47;3.33;;;18.20;98.30;;;;;;4986477;28;20674;-68
2022/05/22 01:36:11;;;;;;;4.07;3.00;;;18.20;98.30;;;;;;4968615;28;20523;-67
2022/05/22 01:38:37;;;;;;;5.93;3.50;;;18.20;98.50;;;;;;4985393;28;20229;-67
2022/05/22 01:41:04;;;;;;;3.93;2.90;;;18.20;98.40;;;;;;4985449;28;20201;-67
2022/05/22 01:43:30;;;;;;;4.23;3.17;;;18.10;98.60;;;;;;4987494;28;20433;-67
2022/05/22 01:45:56;;;;;;;5.30;3.20;;;18.20;98.70;;;;;;4986671;28;20433;-67
2022/05/22 01:48:23;;;;;;;3.97;3.57;;;18.10;98.90;;;;;;4984656;28;20808;-68
2022/05/22 01:50:49;;;;;;;4.73;3.30;;;18.20;98.80;;;;;;4984337;28;20280;-67
2022/05/22 01:53:16;;;;;;;6.23;3.50;;;18.10;98.80;;;;;;4985427;28;20541;-67
2022/05/22 01:55:42;;;;;;;3.57;3.17;;;18.10;99.10;;;;;;4984791;28;20495;-67
2022/05/22 01:58:08;;;;;;;4.50;3.23;;;18.00;99.10;;;;;;4982243;28;20481;-67
2022/05/22 02:00:35;;;;;;;4.73;3.50;;;18.10;99.20;;;;;;4986149;28;20232;-66
2022/05/22 02:03:02;;;;;;;4.73;3.30;;;18.00;99.40;;;;;;4982750;28;20797;-68
2022/05/22 02:05:28;;;;;;;3.90;3.47;;;18.10;99.50;;;;;;4983695;28;20475;-66
2022/05/22 02:10:40;;;;;;;4.93;3.90;;;18.00;99.80;;;;;;4986492;28;20196;-67
2022/05/22 02:13:06;;;;;;;3.90;3.53;;;17.90;99.90;;;;;;4983505;28;20965;-67
2022/05/22 02:15:31;;;;;;;5.70;3.70;;;18.00;99.90;;;;;;4969256;28;20469;-66
2022/05/22 02:17:57;;;;;;;5.57;3.00;;;18.10;99.90;;;;;;4985321;28;20217;-67
2022/05/22 02:20:23;;;;;;;4.90;3.50;;;18.10;99.90;;;;;;4984983;28;20727;-67
2022/05/22 02:22:52;;;;;;;5.53;3.70;;;18.00;99.90;;;;;;4985288;28;20225;-67
2022/05/22 02:25:22;;;;;;;4.13;3.33;;;17.90;99.90;;;;;;4983911;28;20503;-66
2022/05/22 02:27:48;;;;;;;5.00;4.10;;;17.80;99.90;;;;;;4985953;28;20507;-66
2022/05/22 02:30:18;;;;;;;6.97;3.80;;;17.90;99.90;;;;;;4969926;28;21059;-67
2022/05/22 02:32:44;;;;;;;3.67;3.20;;;18.00;99.90;;;;;;4984467;28;20742;-67
2022/05/22 02:35:12;;;;;;;5.03;3.50;;;18.00;99.90;;;;;;4985602;28;20464;-67
2022/05/22 02:37:46;;;;;;;5.23;3.30;;;18.00;99.90;;;;;;4986502;28;20221;-68
2022/05/22 02:40:13;;;;;;;4.50;3.30;;;17.90;99.90;;;;;;4989986;28;20464;-67
2022/05/22 02:42:44;;;;;;;3.40;3.10;;;18.00;99.90;;;;;;4989499;28;20440;-67
2022/05/22 02:45:12;;;;;;;4.20;3.70;;;17.80;99.90;;;;;;4988669;28;20437;-67
2022/05/22 02:47:40;;;;;;;6.17;3.47;;;17.80;99.90;;;;;;4989308;28;20860;-67
2022/05/22 02:50:07;;;;;;;3.77;3.40;;;17.80;99.90;;;;;;4973771;28;20475;-67
2022/05/22 02:52:33;;;;;;;5.53;3.50;;;17.90;99.90;;;;;;4988350;28;20437;-67
2022/05/22 02:54:59;;;;;;;6.50;3.67;;;17.90;99.90;;;;;;4987068;28;20445;-67
2022/05/22 02:57:25;;;;;;;5.20;3.40;;;17.80;99.90;;;;;;4988878;28;20444;-67
2022/05/22 02:59:52;;;;;;;4.83;4.10;;;17.80;99.90;;;;;;4988450;28;20460;-68
2022/05/22 03:02:19;;;;;;;7.20;3.73;;;17.80;99.90;;;;;;4989462;28;20273;-67
2022/05/22 03:04:48;;;;;;;5.27;3.53;;;17.80;99.90;;;;;;4989742;28;20869;-68
2022/05/22 03:07:15;;;;;;;8.30;3.23;;;17.80;99.90;;;;;;4990209;28;20441;-67
2022/05/22 03:09:42;;;;;;;5.30;4.00;;;17.80;99.90;;;;;;4988185;28;20488;-67
2022/05/22 03:12:11;;;;;;;4.57;3.40;;;17.80;99.90;;;;;;4988647;28;20809;-67
2022/05/22 03:14:41;;;;;;;5.23;3.90;;;17.70;99.90;;;;;;4989499;28;20989;-67
2022/05/22 03:17:06;;;;;;;5.50;3.70;;;17.60;99.90;;;;;;4985464;28;20445;-67
2022/05/22 03:19:32;;;;;;;3.90;3.47;;;17.70;99.90;;;;;;4986067;28;21087;-68
2022/05/22 03:21:57;;;;;;;4.47;3.83;;;17.80;99.90;;;;;;4985975;28;20189;-68
2022/05/22 03:24:23;;;;;;;5.30;3.80;;;17.70;99.90;;;;;;4984967;28;20197;-67
2022/05/22 03:26:49;;;;;;;4.23;3.50;;;17.70;99.90;;;;;;4985500;28;20233;-67
2022/05/22 03:29:17;;;;;;;4.10;3.27;;;17.70;99.90;;;;;;4983897;28;20214;-67
2022/05/22 03:31:42;;;;;;;4.37;3.77;;;17.70;99.90;;;;;;4984283;28;20539;-67
2022/05/22 03:34:08;;;;;;;4.67;3.50;;;17.70;99.90;;;;;;4983893;28;20452;-67
2022/05/22 03:36:36;;;;;;;5.57;4.03;;;17.70;99.90;;;;;;4985445;28;20186;-68
2022/05/22 03:39:04;;;;;;;4.17;3.37;;;17.70;99.90;;;;;;4982907;28;20244;-68
2022/05/22 03:41:30;;;;;;;5.10;3.30;;;17.60;99.90;;;;;;4986486;28;20537;-67
2022/05/22 03:43:55;;;;;;;9.00;3.33;;;17.60;99.90;;;;;;4983923;28;20930;-68
2022/05/22 03:46:21;;;;;;;9.73;3.30;;;17.60;99.90;;;;;;4983263;28;20589;-68
2022/05/22 03:48:47;;;;;;;3.30;3.00;;;17.60;99.90;;;;;;4981821;28;20216;-67
2022/05/22 03:51:13;;;;;;;4.33;3.30;;;17.60;99.90;;;;;;4985639;28;20209;-67
2022/05/22 03:53:38;;;;;;;7.17;4.00;;;17.60;99.90;;;;;;4983421;28;20476;-67
2022/05/22 03:56:16;;;;;;;5.00;3.33;;;17.60;99.90;;;;;;4985113;28;20220;-67
2022/05/22 03:58:42;;;;;;;3.33;3.03;;;17.50;99.90;;;;;;4987371;28;20717;-67
2022/05/22 04:01:08;;;;;;;5.57;3.33;;;17.40;99.90;;;;;;4984470;28;20445;-69
2022/05/22 04:03:38;;;;;;;3.20;2.90;;;17.40;99.90;;;;;;4968816;28;20780;-70
2022/05/22 04:06:05;;;;;;;5.07;2.77;;;17.40;99.90;;;;;;4984956;28;20179;-67
2022/05/22 04:08:32;;;;;;;5.53;2.87;;;17.20;99.90;;;;;;4975098;28;20448;-67
2022/05/22 04:11:09;;;;;;;3.67;3.30;;;17.30;99.90;;;;;;4982432;28;20472;-68
2022/05/22 04:13:34;;;;;;;3.07;2.77;;;17.30;99.90;;;;;;4982745;28;20463;-68
2022/05/22 04:16:00;;;;;;;4.43;3.47;;;17.30;99.90;;;;;;4983486;28;20465;-68
2022/05/22 04:18:26;;;;;;;3.50;3.20;;;17.40;99.90;;;;;;4987199;28;20217;-68
2022/05/22 04:20:51;;;;;;;3.77;3.30;;;17.40;99.90;;;;;;4987104;28;20309;-67
2022/05/22 04:26:02;;;;;;;4.13;3.10;;;17.40;99.90;;;;;;4984265;28;20255;-67
2022/05/22 04:28:29;;;;;;;4.73;3.67;;;17.40;99.90;;;;;;4986064;28;20497;-68
2022/05/22 04:30:55;;;;;;;4.53;3.77;;;17.40;99.90;;;;;;4984282;28;20491;-68
2022/05/22 04:33:21;;;;;;;4.93;3.57;;;17.50;99.90;;;;;;4986956;28;20974;-67
2022/05/22 04:35:47;;;;;;;4.70;3.60;;;17.40;99.90;;;;;;4985651;28;20474;-67
2022/05/22 04:38:13;;;;;;;6.57;4.23;;;17.40;99.90;;;;;;4981051;28;20466;-67
2022/05/22 04:40:39;;;;;;;4.13;3.30;;;17.50;99.90;;;;;;4983834;28;20473;-67
2022/05/22 04:43:05;;;;;;;5.67;4.27;;;17.60;99.90;;;;;;4982990;28;20437;-67
2022/05/22 04:45:32;;;;;;;5.40;4.10;;;17.60;99.90;;;;;;4983067;28;20443;-67
2022/05/22 04:47:58;;;;;;;4.33;3.57;;;17.50;99.90;;;;;;4983170;28;20473;-67
2022/05/22 04:50:24;;;;;;;5.77;4.70;;;17.60;99.90;;;;;;4982547;28;20460;-67
2022/05/22 04:52:50;;;;;;;3.93;3.60;;;17.50;99.90;;;;;;4981816;28;20441;-68
2022/05/22 04:55:15;;;;;;;4.10;3.70;;;17.60;99.90;;;;;;4985356;28;20429;-67
2022/05/22 04:57:41;;;;;;;4.80;3.57;;;17.60;99.90;;;;;;4983122;28;20209;-68
2022/05/22 05:00:09;;;;;;;5.50;3.47;;;17.50;99.90;;;;;;4984589;28;20236;-67
2022/05/22 05:02:36;;;;;;;4.40;3.63;;;17.60;99.90;;;;;;4983308;28;20186;-67
2022/05/22 05:05:05;;;;;;;6.70;4.30;;;17.40;99.90;;;;;;4983910;28;20437;-67
2022/05/22 05:07:31;;;;;;;4.53;3.90;;;17.20;99.90;;;;;;4984379;28;20421;-67
2022/05/22 05:09:56;;;;;;;5.57;3.83;;;17.20;99.90;;;;;;4983032;28;20891;-67
2022/05/22 05:12:22;;;;;;;6.43;5.30;;;17.20;99.90;;;;;;4986082;28;20192;-67
2022/05/22 05:14:48;;;;;;;5.33;4.00;;;17.30;99.90;;;;;;4982935;28;20675;-68
2022/05/22 05:17:15;;;;;;;4.40;3.67;;;17.40;99.90;;;;;;4985843;28;20232;-67
2022/05/22 05:19:41;;;;;;;4.40;3.70;;;17.40;99.90;;;;;;4987587;28;20741;-67
2022/05/22 05:22:07;;;;;;;4.73;3.97;;;17.40;99.90;;;;;;4982314;28;20456;-67
2022/05/22 05:24:33;;;;;;;8.50;4.00;;;17.50;99.90;;;;;;4982167;28;20237;-68
2022/05/22 05:26:59;;;;;;;4.00;3.60;;;17.40;99.90;;;;;;4982569;28;20184;-68
2022/05/22 05:29:27;;;;;;;5.80;3.90;;;17.20;99.90;;;;;;4983697;28;20456;-68
2022/05/22 05:31:53;;;;;;;5.83;3.77;;;17.20;99.90;;;;;;4981772;28;20602;-67
2022/05/22 05:34:19;;;;;;;4.73;3.80;;;17.20;99.90;;;;;;4985615;28;20441;-66
2022/05/22 05:36:45;;;;;;;4.60;3.73;;;17.30;99.90;;;;;;4984611;28;20498;-67
2022/05/22 05:39:12;;;;;;;6.27;3.97;;;17.50;99.90;;;;;;4980837;28;20224;-68
2022/05/22 05:41:38;;;;;;;5.60;3.70;;;17.30;99.90;;;;;;4985085;28;20434;-68
2022/05/22 05:44:08;;;;;;;4.80;3.70;;;17.40;99.90;;;;;;4983880;28;20445;-68
2022/05/22 05:46:35;;;;;;;7.50;3.37;;;17.50;99.90;;;;;;4973128;28;20540;-67
2022/05/22 05:49:02;;;;;;;3.70;3.40;;;17.50;99.90;;;;;;4984135;28;20487;-67
2022/05/22 05:51:31;;;;;;;5.80;3.83;;;17.60;99.90;;;;;;4986730;28;20942;-68
2022/05/22 05:53:57;;;;;;;4.83;3.80;;;17.50;99.90;;;;;;4987516;28;20981;-68
2022/05/22 05:56:22;;;;;;;4.37;3.57;;;17.50;99.90;;;;;;4984499;28;20547;-68
2022/05/22 05:58:48;;;;;;;6.63;3.43;;;17.50;99.90;;;;;;4983436;28;20567;-68
2022/05/22 06:01:16;;;;;;;4.23;3.73;;;17.70;99.90;;;;;;4983803;28;21034;-69
2022/05/22 06:03:42;;;;;;;5.27;4.60;;;17.80;99.90;;;;;;4985437;28;20444;-69
2022/05/22 06:06:13;;;;;;;4.13;3.73;;;17.80;99.90;;;;;;4987632;28;20431;-69
2022/05/22 06:08:40;;;;;;;4.10;3.70;;;17.80;99.90;;;;;;4985780;28;20456;-70
2022/05/22 06:11:08;;;;;;;5.03;4.23;;;17.90;99.90;;;;;;4987755;28;20441;-70
2022/05/22 06:13:39;;;;;;;3.30;2.97;;;17.90;99.90;;;;;;4983343;28;20442;-71
2022/05/22 06:16:06;;;;;;;4.93;4.10;;;18.00;99.90;;;;;;4986371;28;20448;-69
2022/05/22 06:18:32;;;;;;;5.33;3.90;;;18.10;99.90;;;;;;4985955;28;20486;-68
2022/05/22 06:20:58;;;;;;;4.50;4.10;;;18.00;99.90;;;;;;4986578;28;20448;-69
2022/05/22 06:23:24;;;;;;;5.60;4.60;;;18.20;99.90;;;;;;4988238;28;20433;-68
2022/05/22 06:25:49;;;;;;;5.53;5.03;;;18.20;99.90;;;;;;4987174;28;20945;-68
2022/05/22 06:28:16;;;;;;;3.50;3.20;;;18.10;99.90;;;;;;4988069;28;20186;-68
2022/05/22 06:30:42;;;;;;;7.47;4.23;;;18.20;99.90;;;;;;4987175;28;20193;-68
2022/05/22 06:33:12;;;;;;;5.77;3.83;;;18.30;99.90;;;;;;4984131;28;20530;-68
2022/05/22 06:35:39;;;;;;;4.10;3.70;;;18.30;99.90;;;;;;4986538;28;20643;-68
2022/05/22 06:38:06;;;;;;;4.23;3.90;;;18.40;99.90;;;;;;4990045;28;20568;-69
2022/05/22 06:40:32;;;;;;;4.30;3.90;;;18.40;99.90;;;;;;4992445;28;20995;-68
2022/05/22 06:43:01;;;;;;;4.53;4.03;;;18.60;99.90;;;;;;4987507;28;20440;-68
2022/05/22 06:45:27;;;;;;;5.43;3.67;;;18.70;99.90;;;;;;4987255;28;20178;-68
2022/05/22 06:47:53;;;;;;;5.20;4.23;;;18.60;99.90;;;;;;4988540;28;20455;-67
2022/05/22 06:50:22;;;;;;;5.97;4.80;;;18.70;99.90;;;;;;4986961;28;20460;-68
2022/05/22 06:52:47;;;;;;;5.60;4.63;;;18.70;99.90;;;;;;4986927;28;20240;-69
2022/05/22 06:55:13;;;;;;;4.67;3.73;;;18.90;99.90;;;;;;4989349;28;20437;-67
2022/05/22 06:57:40;;;;;;;9.37;7.00;;;18.90;99.90;;;;;;4968794;28;20201;-67
2022/05/22 07:00:12;;;;;;;4.67;4.07;;;18.90;99.90;;;;;;4984191;28;20982;-67
2022/05/22 07:02:39;;;;;;;7.90;4.70;;;19.00;99.90;;;;;;4985168;28;20429;-66
2022/05/22 07:05:05;;;;;;;5.67;5.07;;;19.20;99.90;;;;;;4981219;28;20878;-68
2022/05/22 07:07:31;;;;;;;3.77;3.47;;;19.30;99.90;;;;;;4984467;28;20444;-67
2022/05/22 07:09:57;;;;;;;5.13;4.50;;;19.40;99.90;;;;;;4989087;28;20964;-68
2022/05/22 07:12:23;;;;;;;4.30;3.90;;;19.50;99.90;;;;;;4983949;28;20631;-68
2022/05/22 07:14:53;;;;;;;4.20;3.70;;;19.50;99.90;;;;;;4983893;28;20190;-68
2022/05/22 07:17:23;;;;;;;7.77;3.90;;;19.60;99.90;;;;;;4984971;28;20432;-68
2022/05/22 07:19:50;;;;;;;5.20;3.90;;;19.70;99.90;;;;;;4984209;28;20823;-68
2022/05/22 07:22:15;;;;;;;5.80;3.67;;;19.70;99.90;;;;;;4980696;28;21044;-68
2022/05/22 07:24:41;;;;;;;6.60;4.10;;;19.80;99.90;;;;;;4981554;28;20433;-68
2022/05/22 07:27:07;;;;;;;6.43;4.30;;;19.70;99.90;;;;;;4982926;28;20190;-68
2022/05/22 07:29:33;;;;;;;5.47;4.10;;;19.70;99.90;;;;;;4985331;28;20591;-68
2022/05/22 07:31:59;;;;;;;4.30;3.90;;;19.80;99.90;;;;;;4983486;28;20685;-68
2022/05/22 07:34:25;;;;;;;5.43;3.97;;;19.80;99.90;;;;;;4966160;28;20452;-66
2022/05/22 07:36:56;;;;;;;6.47;3.00;;;19.80;99.90;;;;;;4987133;28;20487;-67
2022/05/22 07:39:21;;;;;;;8.13;3.97;;;19.90;99.90;;;;;;4984382;28;20508;-69
2022/05/22 07:41:47;;;;;;;9.70;7.70;;;19.90;99.90;;;;;;4982339;28;20512;-68
2022/05/22 07:44:12;;;;;;;6.83;3.80;;;19.90;99.90;;;;;;4986334;28;20193;-68
2022/05/22 07:46:41;;;;;;;5.90;3.70;;;19.90;99.90;;;;;;4985286;28;20201;-68
2022/05/22 07:50:16;;;;;;;3.73;3.43;;;20.00;99.90;;;;;;4986958;28;20213;-69
2022/05/22 07:51:55;;;;;;;5.07;3.50;;;20.00;99.90;;;;;;4987210;28;20433;-68
2022/05/22 07:54:21;;;;;;;4.90;3.97;;;20.00;99.90;;;;;;4964180;28;20824;-70
2022/05/22 07:56:46;;;;;;;4.97;4.47;;;20.10;99.90;;;;;;4984322;28;20549;-68
2022/05/22 07:59:12;;;;;;;5.83;4.60;;;20.00;99.90;;;;;;4985165;28;20615;-69
2022/05/22 08:01:37;;;;;;;4.10;3.70;;;20.10;99.90;;;;;;4989214;28;20200;-67
2022/05/22 08:04:04;;;;;;;3.60;3.07;;;20.10;99.90;;;;;;4990973;28;20197;-69
2022/05/22 08:06:29;;;;;;;4.60;3.30;;;20.20;99.90;;;;;;4988923;28;20709;-69
2022/05/22 08:08:55;;;;;;;6.20;5.60;;;20.30;99.90;;;;;;4990583;28;20493;-69
2022/05/22 08:11:20;;;;;;;4.40;4.00;;;20.30;99.90;;;;;;4994796;28;20284;-67
2022/05/22 08:13:46;;;;;;;5.50;4.57;;;20.30;99.90;;;;;;4990220;28;20556;-69
2022/05/22 08:16:12;;;;;;;4.10;3.13;;;20.40;99.90;;;;;;4989342;28;20244;-68
2022/05/22 08:18:37;;;;;;;5.63;4.20;;;20.40;99.90;;;;;;4993959;28;20220;-68
2022/05/22 08:21:03;;;;;;;4.57;3.40;;;20.30;99.90;;;;;;4989013;28;20197;-68
2022/05/22 08:23:29;;;;;;;6.97;4.20;;;20.30;99.90;;;;;;4990841;28;20181;-68
2022/05/22 08:25:55;;;;;;;4.30;3.80;;;20.40;99.90;;;;;;4988828;28;20185;-70
2022/05/22 08:28:21;;;;;;;8.53;7.67;;;20.50;99.90;;;;;;4988734;28;20182;-71
2022/05/22 08:30:47;;;;;;;7.10;3.40;;;20.50;99.90;;;;;;4988829;28;20464;-69
2022/05/22 08:33:15;;;;;;;5.00;3.40;;;20.40;99.90;;;;;;4981618;28;20220;-70
2022/05/22 08:35:43;;;;;;;4.90;3.80;;;20.40;99.90;;;;;;4975962;28;20463;-70
2022/05/22 08:38:10;;;;;;;4.07;3.70;;;20.50;99.90;;;;;;4985250;28;20472;-67
2022/05/22 08:40:49;;;;;;;3.63;2.80;;;20.60;99.90;;;;;;4982988;28;20472;-68
2022/05/22 08:43:38;;;;;;;3.30;3.00;;;20.70;99.90;;;;;;4962697;28;20439;-67
2022/05/22 08:46:22;;;;;;;4.70;3.33;;;20.80;99.90;;;;;;4983302;28;20483;-67
2022/05/22 08:48:53;;;;;;;5.90;4.20;;;20.80;99.20;;;;;;4983926;28;20484;-68
2022/05/22 08:51:40;;;;;;;4.20;3.80;;;20.90;98.70;;;;;;4981129;28;20452;-68
2022/05/22 08:54:33;;;;;;;5.47;3.60;;;20.80;97.20;;;;;;4965459;28;20437;-68
2022/05/22 08:59:48;;;;;;;3.07;2.57;;;21.10;96.80;;;;;;4983889;28;20578;-68
2022/05/22 09:02:46;;;;;;;3.70;2.97;;;21.20;96.20;;;;;;4980507;28;21025;-68
2022/05/22 09:05:20;;;;;;;3.93;2.53;;;21.40;95.90;;;;;;4948711;28;20443;-67
2022/05/22 09:08:08;;;;;;;4.40;2.60;;;21.50;94.50;;;;;;4983983;28;20482;-67
2022/05/22 09:11:01;;;;;;;7.70;5.00;;;21.50;93.90;;;;;;4985275;28;20429;-67
2022/05/22 09:13:51;;;;;;;4.60;3.00;;;21.60;93.60;;;;;;4982168;28;20956;-68
2022/05/22 09:16:38;;;;;;;3.87;2.77;;;21.70;93.80;;;;;;4982611;28;20445;-68
2022/05/22 09:19:22;;;;;;;3.00;2.70;;;21.90;93.00;;;;;;4986713;28;20515;-68
2022/05/22 09:22:23;;;;;;;5.63;3.60;;;22.00;91.70;;;;;;4980361;28;20800;-68
2022/05/22 09:25:09;;;;;;;3.33;2.90;;;21.80;92.20;;;;;;4980417;28;20488;-68
2022/05/22 09:27:54;;;;;;;3.63;3.13;;;21.90;91.70;;;;;;4979319;28;20425;-70
2022/05/22 09:30:47;;;;;;;3.97;3.00;;;22.00;92.10;;;;;;4977417;28;20598;-67
2022/05/22 09:33:28;;;;;;;7.50;5.63;;;22.10;91.80;;;;;;4977016;28;20449;-67
2022/05/22 09:36:16;;;;;;;4.17;3.77;;;22.10;91.50;;;;;;4974958;28;20546;-66
2022/05/22 09:38:51;;;;;;;5.07;3.77;;;22.30;91.60;;;;;;4953270;28;21009;-66
2022/05/22 09:41:48;;;;;;;6.53;5.77;;;22.40;91.50;;;;;;4976600;28;20785;-66
2022/05/22 09:44:17;;;;;;;5.70;3.10;;;22.50;92.10;;;;;;4971486;28;20759;-66
2022/05/22 09:46:45;;;;;;;4.30;3.33;;;22.70;91.20;;;;;;4976692;28;20436;-67
2022/05/22 09:49:20;;;;;;;5.30;2.80;;;22.80;90.70;;;;;;4979908;28;20460;-67
2022/05/22 09:52:00;;;;;;;3.20;2.90;;;22.90;90.40;;;;;;4981046;28;20824;-68
2022/05/22 09:55:03;;;;;;;3.70;3.03;;;22.90;88.70;;;;;;4981950;28;20440;-68
2022/05/22 09:57:50;;;;;;;3.63;2.80;;;22.90;86.60;;;;;;4980716;28;20441;-67
2022/05/22 10:00:24;;;;;;;5.67;2.77;;;22.90;88.10;;;;;;4983610;28;20520;-72
2022/05/22 10:02:52;;;;;;;3.23;2.50;;;23.00;85.00;;;;;;4980183;28;20503;-72
2022/05/22 10:05:26;;;;;;;3.70;2.60;;;22.90;82.20;;;;;;4975797;28;20447;-72
2022/05/22 10:08:16;;;;;;;4.20;2.87;;;22.80;83.50;;;;;;4977268;28;20444;-72
2022/05/22 10:11:08;;;;;;;3.10;2.40;;;22.80;82.40;;;;;;4977373;28;20436;-72
2022/05/22 10:13:52;;;;;;;3.80;3.00;;;22.80;81.70;;;;;;4961213;28;20459;-71
2022/05/22 10:16:43;;;;;;;5.17;2.90;;;22.80;84.10;;;;;;4979824;28;21266;-72
2022/05/22 10:19:27;;;;;;;2.83;2.40;;;22.80;84.50;;;;;;4977384;28;20484;-70
2022/05/22 10:22:23;;;;;;;3.73;2.60;;;22.70;84.70;;;;;;4960793;28;20441;-71
2022/05/22 10:25:04;;;;;;;4.90;2.53;;;22.80;83.80;;;;;;4965754;28;20455;-71
2022/05/22 10:28:11;;;;;;;6.77;2.80;;;23.00;83.10;;;;;;4981333;28;20467;-69
2022/05/22 10:30:48;;;;;;;3.70;2.57;;;22.90;84.40;;;;;;4975196;28;20881;-71
2022/05/22 10:33:30;;;;;;;6.47;2.73;;;23.00;85.50;;;;;;4986199;28;20527;-70
2022/05/22 10:36:12;;;;;;;2.90;2.60;;;23.10;84.40;;;;;;4985187;28;20425;-70
2022/05/22 10:38:48;;;;;;;2.40;2.20;;;23.10;83.90;;;;;;4983277;28;21080;-71
2022/05/22 10:44:14;;;;;;;4.60;2.40;;;23.40;81.10;;;;;;4987177;28;20444;-69
2022/05/22 10:46:49;;;;;;;3.20;2.50;;;23.50;80.40;;;;;;4983707;28;20433;-69
2022/05/22 10:49:15;;;;;;;2.53;2.20;;;23.60;80.20;;;;;;4985587;28;21024;-68
2022/05/22 10:51:41;;;;;;;4.80;3.23;;;23.80;79.00;;;;;;4981848;28;20950;-69
2022/05/22 10:54:07;;;;;;;4.00;2.40;;;23.90;78.60;;;;;;4984357;28;20492;-68
2022/05/22 10:56:35;;;;;;;3.83;2.47;;;24.20;77.10;;;;;;4987334;28;20178;-68
2022/05/22 10:59:08;;;;;;;3.30;2.10;;;24.30;77.10;;;;;;4988890;28;20229;-69
2022/05/22 11:01:36;;;;;;;2.93;2.20;;;24.40;74.30;;;;;;4988453;28;20433;-68
2022/05/22 11:04:08;;;;;;;4.13;2.93;;;24.40;73.20;;;;;;4984300;28;21004;-68
2022/05/22 11:06:50;;;;;;;5.70;2.57;;;24.40;74.30;;;;;;4987439;28;20437;-69
2022/05/22 11:09:24;;;;;;;5.53;2.63;;;24.40;72.50;;;;;;4983077;28;20988;-68
2022/05/22 11:11:49;;;;;;;3.37;2.70;;;24.60;73.50;;;;;;4986127;28;20438;-68
2022/05/22 11:14:20;;;;;;;5.00;2.70;;;24.70;72.90;;;;;;4984885;28;21157;-67
2022/05/22 11:16:47;;;;;;;2.30;2.10;;;24.90;73.40;;;;;;4988455;28;20240;-68
2022/05/22 11:19:24;;;;;;;3.27;2.97;;;25.00;71.40;;;;;;4984969;28;20507;-68
2022/05/22 11:22:20;;;;;;;4.77;3.13;;;25.00;71.20;;;;;;4985218;28;20416;-68
2022/05/22 11:25:05;;;;;;;3.83;2.70;;;24.90;71.90;;;;;;4984905;28;20437;-68
2022/05/22 11:27:57;;;;;;;3.07;2.27;;;25.20;70.40;;;;;;4985324;28;20425;-68
2022/05/22 11:31:00;;;;;;;3.30;2.57;;;25.30;69.60;;;;;;4983714;28;20548;-68
2022/05/22 11:33:55;;;;;;;5.53;3.30;;;25.40;70.10;;;;;;4983438;28;20511;-68
2022/05/22 11:36:55;;;;;;;3.10;2.70;;;25.50;72.00;;;;;;4983926;28;20926;-69
2022/05/22 11:39:36;;;;;;;3.23;2.67;;;25.80;69.50;;;;;;4982405;28;21031;-69
2022/05/22 11:42:33;;;;;;;4.20;2.70;;;25.90;70.30;;;;;;4986912;28;20469;-68
2022/05/22 11:45:42;;;;;;;3.20;2.67;;;26.20;69.60;;;;;;4983553;28;20441;-68
2022/05/22 11:48:26;;;;;;;6.40;3.00;;;26.70;69.90;;;;;;4967094;28;20445;-67
2022/05/22 11:51:35;;;;;;;13.07;4.23;;;27.10;66.00;;;;;;4985387;28;20507;-68
2022/05/22 11:54:29;;;;;;;4.87;2.87;;;27.40;65.00;;;;;;4984157;28;20441;-68
2022/05/22 11:57:29;;;;;;;5.50;5.03;;;28.00;63.20;;;;;;4982483;28;20495;-68
2022/05/22 11:59:58;;;;;;;4.67;3.23;;;28.70;62.90;;;;;;4967828;28;20468;-67
2022/05/22 12:02:33;;;;;;;7.93;2.93;;;29.10;59.30;;;;;;4985256;28;20425;-68
2022/05/22 12:05:43;;;;;;;3.20;2.83;;;30.50;58.60;;;;;;4984114;28;20440;-68
2022/05/22 12:08:50;;;;;;;3.27;2.57;;;32.40;56.00;;;;;;4948381;28;20926;-68
2022/05/22 12:11:33;;;;;;;2.67;2.23;;;34.10;52.80;;;;;;4855740;29;20495;-68
2022/05/22 12:14:05;;;;;;;3.40;2.80;;;35.80;50.60;;;;;;4882860;29;21020;-68
2022/05/22 12:16:55;;;;;;;3.10;2.20;;;36.40;46.90;;;;;;4949952;28;20877;-67
2022/05/22 12:19:43;;;;;;;3.97;2.77;;;36.20;44.60;;;;;;4986237;28;20477;-68
2022/05/22 12:22:21;;;;;;;3.40;2.57;;;36.20;43.10;;;;;;4984485;28;20464;-68
2022/05/22 12:24:57;;;;;;;2.70;2.50;;;35.00;42.90;;;;;;4986553;28;20403;-68
2022/05/22 12:27:32;;;;;;;3.60;2.83;;;34.80;43.60;;;;;;4984913;28;20460;-68
2022/05/22 12:30:13;;;;;;;4.20;3.20;;;34.90;45.00;;;;;;4982133;28;20483;-68
2022/05/22 12:32:54;;;;;;;2.83;2.40;;;35.20;43.50;;;;;;4984560;28;20424;-67
2022/05/22 12:35:20;;;;;;;4.43;2.80;;;35.00;43.30;;;;;;4985117;28;20448;-68
2022/05/22 12:37:51;;;;;;;3.03;2.73;;;35.50;42.80;;;;;;4983174;28;20436;-68
2022/05/22 12:40:31;;;;;;;3.33;3.03;;;36.10;42.10;;;;;;4981677;28;20214;-68
2022/05/22 12:43:00;;;;;;;4.30;2.60;;;37.00;41.60;;;;;;4983160;28;20421;-67
2022/05/22 12:45:29;;;;;;;3.27;2.97;;;37.20;40.30;;;;;;4983847;28;20946;-67
2022/05/22 12:47:55;;;;;;;5.57;2.53;;;37.60;40.10;;;;;;4983098;28;20537;-68
2022/05/22 12:50:48;;;;;;;6.70;2.70;;;38.20;39.90;;;;;;4983046;28;20555;-68
2022/05/22 12:53:29;;;;;;;3.27;2.97;;;38.60;40.00;;;;;;4984110;28;20432;-68
2022/05/22 12:55:55;;;;;;;2.57;2.37;;;39.20;39.20;;;;;;4984167;28;20820;-68
2022/05/22 12:58:34;;;;;;;3.57;2.90;;;39.10;37.90;;;;;;4983201;28;20580;-68
2022/05/22 13:01:00;;;;;;;2.97;2.50;;;38.60;37.60;;;;;;4983276;28;20777;-68
2022/05/22 13:03:35;;;;;;;4.13;2.90;;;38.30;38.60;;;;;;4981619;28;20448;-68
2022/05/22 13:06:23;;;;;;;5.57;2.70;;;38.30;38.20;;;;;;4983247;28;20185;-68
2022/05/22 13:08:58;;;;;;;2.80;2.47;;;38.20;37.90;;;;;;4966392;28;20482;-68
2022/05/22 13:11:37;;;;;;;4.83;2.57;;;37.30;37.30;;;;;;4965268;28;20567;-69
2022/05/22 13:14:03;;;;;;;4.07;2.60;;;36.60;37.80;;;;;;4984221;28;20524;-68
2022/05/22 13:16:40;;;;;;;2.73;2.40;;;35.90;39.10;;;;;;4984485;28;20511;-68
2022/05/22 13:19:16;;;;;;;2.73;2.53;;;35.60;38.20;;;;;;4982450;28;20472;-68
2022/05/22 13:21:43;;;;;;;2.80;2.60;;;35.60;38.90;;;;;;4982156;28;20414;-68
2022/05/22 13:24:17;;;;;;;3.10;2.60;;;35.90;39.60;;;;;;4984343;28;20433;-68